createdAt,value
2023-02-06T00:00:25.072Z,11.23
2023-02-06T00:02:52.906Z,11.17
2023-02-06T00:05:20.245Z,11.10
2023-02-06T00:07:47.074Z,11.03
2023-02-06T00:10:16.338Z,11.00
2023-02-06T00:12:43.176Z,10.95
2023-02-06T00:15:10.213Z,10.90
2023-02-06T00:17:38.415Z,10.89
2023-02-06T00:20:08.127Z,10.89
2023-02-06T00:22:35.783Z,10.89
2023-02-06T00:25:02.875Z,10.90
2023-02-06T00:27:31.306Z,11.00
2023-02-06T00:29:59.019Z,10.95
2023-02-06T00:32:26.167Z,10.93
2023-02-06T00:34:53.007Z,10.90
2023-02-06T00:37:20.311Z,10.90
2023-02-06T00:39:47.318Z,10.88
2023-02-06T00:42:15.192Z,10.89
2023-02-06T00:44:43.491Z,10.88
2023-02-06T00:47:10.770Z,10.82
2023-02-06T00:49:37.823Z,10.77
2023-02-06T00:52:04.984Z,10.76
2023-02-06T00:54:31.864Z,10.77
2023-02-06T00:56:58.933Z,10.72
2023-02-06T00:59:26.606Z,10.76
2023-02-06T01:01:55.157Z,10.71
2023-02-06T01:04:22.092Z,10.69
2023-02-06T01:06:49.209Z,10.66
2023-02-06T01:09:16.562Z,10.68
2023-02-06T01:11:43.522Z,10.69
2023-02-06T01:14:10.647Z,10.71
2023-02-06T01:16:37.548Z,10.72
2023-02-06T01:19:06.027Z,10.76
2023-02-06T01:21:33.250Z,10.80
2023-02-06T01:24:00.688Z,10.83
2023-02-06T01:26:27.725Z,10.83
2023-02-06T01:28:55.849Z,10.84
2023-02-06T01:31:27.815Z,10.89
2023-02-06T01:34:00.345Z,10.86
2023-02-06T01:36:28.887Z,10.86
2023-02-06T01:38:56.996Z,10.82
2023-02-06T01:41:24.525Z,10.72
2023-02-06T01:44:12.936Z,10.62
2023-02-06T01:46:41.697Z,10.49
2023-02-06T01:49:14.103Z,10.46
2023-02-06T01:51:42.770Z,10.34
2023-02-06T01:54:12.061Z,10.28
2023-02-06T01:56:45.508Z,10.28
2023-02-06T01:59:12.889Z,10.28
2023-02-06T02:01:40.775Z,10.39
2023-02-06T02:04:14.570Z,10.44
2023-02-06T02:06:45.523Z,10.44
2023-02-06T02:09:14.087Z,10.42
2023-02-06T02:11:41.451Z,10.39
2023-02-06T02:14:12.780Z,10.41
2023-02-06T02:16:52.128Z,10.37
2023-02-06T02:20:32.842Z,10.32
2023-02-06T02:23:23.800Z,10.25
2023-02-06T02:26:46.915Z,10.25
2023-02-06T02:30:18.897Z,10.24
2023-02-06T02:33:26.762Z,10.22
2023-02-06T02:36:09.741Z,10.31
2023-02-06T02:38:54.047Z,10.37
2023-02-06T02:41:30.424Z,10.41
2023-02-06T02:44:08.692Z,10.45
2023-02-06T02:46:41.200Z,10.45
2023-02-06T02:49:13.920Z,10.39
2023-02-06T02:51:47.324Z,10.27
2023-02-06T02:54:15.548Z,10.14
2023-02-06T02:56:43.662Z,10.05
2023-02-06T02:59:17.359Z,10.04
2023-02-06T03:01:59.277Z,9.98
2023-02-06T03:04:34.203Z,9.98
2023-02-06T03:07:19.636Z,10.02
2023-02-06T03:10:01.195Z,10.04
2023-02-06T03:12:40.080Z,10.10
2023-02-06T03:15:22.324Z,10.18
2023-02-06T03:18:07.304Z,10.28
2023-02-06T03:20:41.842Z,10.27
2023-02-06T03:23:17.210Z,10.31
2023-02-06T03:25:49.154Z,10.32
2023-02-06T03:28:21.718Z,10.28
2023-02-06T03:30:53.761Z,10.27
2023-02-06T03:33:26.484Z,10.20
2023-02-06T03:35:56.513Z,10.20
2023-02-06T03:38:25.674Z,10.27
2023-02-06T03:40:56.560Z,10.30
2023-02-06T03:43:28.119Z,10.37
2023-02-06T03:46:00.970Z,10.37
2023-02-06T03:48:33.529Z,10.32
2023-02-06T03:51:07.010Z,10.35
2023-02-06T03:53:38.431Z,10.31
2023-02-06T03:56:10.741Z,10.32
2023-02-06T03:58:37.882Z,10.32
2023-02-06T04:01:07.128Z,10.37
2023-02-06T04:03:59.841Z,10.35
2023-02-06T04:06:27.188Z,10.41
2023-02-06T04:08:55.642Z,10.39
2023-02-06T04:11:22.686Z,10.37
2023-02-06T04:13:49.711Z,10.37
2023-02-06T04:16:16.545Z,10.39
2023-02-06T04:18:43.931Z,10.37
2023-02-06T04:21:11.322Z,10.38
2023-02-06T04:23:38.463Z,10.38
2023-02-06T04:26:06.933Z,10.41
2023-02-06T04:28:33.906Z,10.35
2023-02-06T04:31:01.463Z,10.38
2023-02-06T04:33:28.554Z,10.39
2023-02-06T04:35:55.392Z,10.37
2023-02-06T04:38:22.417Z,10.31
2023-02-06T04:40:49.659Z,10.32
2023-02-06T04:43:17.930Z,10.31
2023-02-06T04:45:45.360Z,10.31
2023-02-06T04:48:12.209Z,10.34
2023-02-06T04:50:42.110Z,10.30
2023-02-06T04:53:09.262Z,10.24
2023-02-06T04:55:36.498Z,10.18
2023-02-06T04:58:03.848Z,10.12
2023-02-06T05:00:32.306Z,10.01
2023-02-06T05:02:59.762Z,9.91
2023-02-06T05:05:27.064Z,9.79
2023-02-06T05:07:54.067Z,9.73
2023-02-06T05:10:21.361Z,9.69
2023-02-06T05:12:48.617Z,9.59
2023-02-06T05:15:15.482Z,9.59
2023-02-06T05:17:43.863Z,9.56
2023-02-06T05:23:03.614Z,9.56
2023-02-06T05:25:30.685Z,9.61
2023-02-06T05:27:58.563Z,9.63
2023-02-06T05:30:25.518Z,9.64
2023-02-06T05:32:53.815Z,9.67
2023-02-06T05:35:21.382Z,9.70
2023-02-06T05:37:49.576Z,9.76
2023-02-06T05:40:17.211Z,9.81
2023-02-06T05:42:44.051Z,9.89
2023-02-06T05:45:36.924Z,9.87
2023-02-06T05:48:06.063Z,9.91
2023-02-06T05:50:33.385Z,9.89
2023-02-06T05:53:00.728Z,9.86
2023-02-06T05:55:27.910Z,9.87
2023-02-06T05:57:55.145Z,9.90
2023-02-06T06:00:22.508Z,9.94
2023-02-06T06:02:49.482Z,10.00
2023-02-06T06:05:18.172Z,10.08
2023-02-06T06:07:45.128Z,10.14
2023-02-06T06:10:12.390Z,10.22
2023-02-06T06:12:39.491Z,10.25
2023-02-06T06:15:08.000Z,10.30
2023-02-06T06:17:35.059Z,10.28
2023-02-06T06:20:02.004Z,10.22
2023-02-06T06:25:21.626Z,10.17
2023-02-06T06:27:48.648Z,10.21
2023-02-06T06:30:15.678Z,10.25
2023-02-06T06:32:42.701Z,10.28
2023-02-06T06:35:09.958Z,10.31
2023-02-06T06:37:39.910Z,10.31
2023-02-06T06:40:08.148Z,10.32
2023-02-06T06:42:35.194Z,10.31
2023-02-06T06:45:02.776Z,10.31
2023-02-06T06:47:33.973Z,10.31
2023-02-06T06:50:01.061Z,10.31
2023-02-06T06:52:28.035Z,10.30
2023-02-06T06:54:56.375Z,10.30
2023-02-06T06:57:24.743Z,10.31
2023-02-06T06:59:52.674Z,10.30
2023-02-06T07:02:23.285Z,10.27
2023-02-06T07:04:51.007Z,10.25
2023-02-06T07:07:18.107Z,10.25
2023-02-06T07:09:47.712Z,10.28
2023-02-06T07:12:16.293Z,10.30
2023-02-06T07:14:43.654Z,10.28
2023-02-06T07:17:10.661Z,10.30
2023-02-06T07:19:37.645Z,10.30
2023-02-06T07:22:05.510Z,10.34
2023-02-06T07:24:32.606Z,10.37
2023-02-06T07:27:00.033Z,10.44
2023-02-06T07:29:28.365Z,10.48
2023-02-06T07:31:55.464Z,10.56
2023-02-06T07:34:22.429Z,10.61
2023-02-06T07:36:49.256Z,10.63
2023-02-06T07:39:16.623Z,10.68
2023-02-06T07:41:43.571Z,10.73
2023-02-06T07:44:16.820Z,10.80
2023-02-06T07:46:46.192Z,10.89
2023-02-06T07:49:13.818Z,10.93
2023-02-06T07:51:40.951Z,10.99
2023-02-06T07:54:07.981Z,11.13
2023-02-06T07:56:34.984Z,11.21
2023-02-06T07:59:02.212Z,11.30
2023-02-06T08:01:29.478Z,11.35
2023-02-06T08:03:58.027Z,11.47
2023-02-06T08:06:27.534Z,11.58
2023-02-06T08:08:56.002Z,11.68
2023-02-06T08:11:23.981Z,11.72
2023-02-06T08:13:51.391Z,11.75
2023-02-06T08:16:21.575Z,11.72
2023-02-06T08:18:49.124Z,11.67
2023-02-06T08:21:20.371Z,11.72
2023-02-06T08:23:48.009Z,11.77
2023-02-06T08:26:18.189Z,11.86
2023-02-06T08:28:48.327Z,11.86
2023-02-06T08:31:18.661Z,11.88
2023-02-06T08:33:46.372Z,11.85
2023-02-06T08:36:15.155Z,11.74
2023-02-06T08:38:44.088Z,11.70
2023-02-06T08:41:19.794Z,11.72
2023-02-06T08:43:47.910Z,11.79
2023-02-06T08:46:17.630Z,11.94
2023-02-06T08:48:45.356Z,12.06
2023-02-06T08:51:13.446Z,12.22
2023-02-06T08:53:40.477Z,12.39
2023-02-06T08:56:12.348Z,12.43
2023-02-06T08:58:40.171Z,12.46
2023-02-06T09:01:07.761Z,12.43
2023-02-06T09:04:01.536Z,12.39
2023-02-06T09:06:29.539Z,12.45
2023-02-06T09:08:57.483Z,12.54
2023-02-06T09:11:27.099Z,12.73
2023-02-06T09:13:56.503Z,12.87
2023-02-06T09:16:24.444Z,12.93
2023-02-06T09:18:54.114Z,13.08
2023-02-06T09:21:25.161Z,13.27
2023-02-06T09:23:57.182Z,13.44
2023-02-06T09:26:28.515Z,13.61
2023-02-06T09:28:58.279Z,13.65
2023-02-06T09:31:26.896Z,13.75
2023-02-06T09:33:54.537Z,13.86
2023-02-06T09:36:22.094Z,13.95
2023-02-06T09:38:53.158Z,14.12
2023-02-06T09:41:30.419Z,14.19
2023-02-06T09:44:04.794Z,14.23
2023-02-06T09:46:35.226Z,14.33
2023-02-06T09:49:12.485Z,14.52
2023-02-06T09:52:06.502Z,14.67
2023-02-06T09:54:47.669Z,14.78
2023-02-06T09:57:27.600Z,14.91
2023-02-06T09:59:59.983Z,14.99
2023-02-06T10:02:43.632Z,15.01
2023-02-06T10:05:24.006Z,15.09
2023-02-06T10:08:11.151Z,15.20
2023-02-06T10:10:45.340Z,15.26
2023-02-06T10:13:22.336Z,15.30
2023-02-06T10:15:55.056Z,15.32
2023-02-06T10:18:32.521Z,15.38
2023-02-06T10:21:10.163Z,15.38
2023-02-06T10:23:46.607Z,15.40
2023-02-06T10:26:17.103Z,15.43
2023-02-06T10:28:50.446Z,15.57
2023-02-06T10:32:01.847Z,15.77
2023-02-06T10:34:48.711Z,15.90
2023-02-06T10:37:46.293Z,16.08
2023-02-06T10:40:37.424Z,16.26
2023-02-06T10:43:21.317Z,16.36
2023-02-06T10:46:00.769Z,16.44
2023-02-06T10:48:36.568Z,16.45
2023-02-06T10:51:17.729Z,16.42
2023-02-06T10:53:50.337Z,16.38
2023-02-06T10:56:22.213Z,16.28
2023-02-06T10:59:01.029Z,16.14
2023-02-06T11:01:35.628Z,16.02
2023-02-06T11:04:11.920Z,15.94
2023-02-06T11:06:40.948Z,15.91
2023-02-06T11:09:09.547Z,15.87
2023-02-06T11:11:39.978Z,15.83
2023-02-06T11:14:15.191Z,15.81
2023-02-06T11:16:46.031Z,15.71
2023-02-06T11:19:20.069Z,15.73
2023-02-06T11:21:55.270Z,15.73
2023-02-06T11:24:25.037Z,15.69
2023-02-06T11:26:57.458Z,15.70
2023-02-06T11:29:32.116Z,15.70
2023-02-06T11:32:03.975Z,15.63
2023-02-06T11:34:33.965Z,15.59
2023-02-06T11:37:04.154Z,15.54
2023-02-06T11:39:34.765Z,15.57
2023-02-06T11:42:05.050Z,15.67
2023-02-06T11:44:39.918Z,15.73
2023-02-06T11:47:32.248Z,15.87
2023-02-06T11:50:27.469Z,15.94
2023-02-06T11:53:10.040Z,15.96
2023-02-06T11:55:39.537Z,15.93
2023-02-06T11:58:21.153Z,15.98
2023-02-06T12:01:01.606Z,16.00
2023-02-06T12:03:58.879Z,16.02
2023-02-06T12:06:31.816Z,16.14
2023-02-06T12:09:01.809Z,16.26
2023-02-06T12:11:35.036Z,16.45
2023-02-06T12:14:10.587Z,16.77
2023-02-06T12:16:43.163Z,17.33
2023-02-06T12:19:18.318Z,17.92
2023-02-06T12:21:50.036Z,18.53
2023-02-06T12:24:28.568Z,19.15
2023-02-06T12:26:59.227Z,19.49
2023-02-06T12:29:33.205Z,19.80
2023-02-06T12:32:06.772Z,20.13
2023-02-06T12:34:48.968Z,20.34
2023-02-06T12:37:25.308Z,20.43
2023-02-06T12:39:52.819Z,20.48
2023-02-06T12:45:42.639Z,20.70
2023-02-06T12:48:18.713Z,20.84
2023-02-06T12:51:04.670Z,20.91
2023-02-06T12:53:37.729Z,20.85
2023-02-06T12:56:15.163Z,20.64
2023-02-06T12:59:01.050Z,20.60
2023-02-06T13:01:49.126Z,20.71
2023-02-06T13:04:20.132Z,20.84
2023-02-06T13:07:03.592Z,21.03
2023-02-06T13:09:37.581Z,21.18
2023-02-06T13:12:12.939Z,21.32
2023-02-06T13:14:47.600Z,21.39
2023-02-06T13:17:19.504Z,21.41
2023-02-06T13:20:07.419Z,21.42
2023-02-06T13:22:47.129Z,21.35
2023-02-06T13:25:50.724Z,21.43
2023-02-06T13:29:21.348Z,21.52
2023-02-06T13:31:48.408Z,21.53
2023-02-06T13:34:18.048Z,21.38
2023-02-06T13:36:52.237Z,21.12
2023-02-06T13:39:32.977Z,20.70
2023-02-06T13:42:29.796Z,20.23
2023-02-06T13:44:59.494Z,19.83
2023-02-06T13:48:11.947Z,19.42
2023-02-06T13:51:22.670Z,18.83
2023-02-06T13:54:33.765Z,18.15
2023-02-06T13:57:27.954Z,17.57
2023-02-06T14:00:01.404Z,17.17
2023-02-06T14:02:37.171Z,16.90
2023-02-06T14:05:10.994Z,16.65
2023-02-06T14:08:01.644Z,16.29
2023-02-06T14:11:06.059Z,16.17
2023-02-06T14:14:10.161Z,16.04
2023-02-06T14:16:49.392Z,15.87
2023-02-06T14:19:30.101Z,15.76
2023-02-06T14:22:10.545Z,15.66
2023-02-06T14:25:02.545Z,15.61
2023-02-06T14:27:47.397Z,15.53
2023-02-06T14:30:31.885Z,15.61
2023-02-06T14:33:48.818Z,15.73
2023-02-06T14:36:43.229Z,15.81
2023-02-06T14:39:41.255Z,16.00
2023-02-06T14:42:16.605Z,15.98
2023-02-06T14:44:47.823Z,16.02
2023-02-06T14:47:22.714Z,16.12
2023-02-06T14:49:50.774Z,16.10
2023-02-06T14:52:22.626Z,16.17
2023-02-06T14:54:50.248Z,16.01
2023-02-06T14:57:23.341Z,15.98
2023-02-06T14:59:57.165Z,16.00
2023-02-06T15:02:29.708Z,16.02
2023-02-06T15:04:58.573Z,16.12
2023-02-06T15:07:31.091Z,16.05
2023-02-06T15:10:04.363Z,15.94
2023-02-06T15:12:31.703Z,15.96
2023-02-06T15:15:02.531Z,16.01
2023-02-06T15:17:32.585Z,15.98
2023-02-06T15:20:24.174Z,15.98
2023-02-06T15:22:52.060Z,15.87
2023-02-06T15:25:36.062Z,15.86
2023-02-06T15:31:01.451Z,15.50
2023-02-06T15:33:34.103Z,15.38
2023-02-06T15:36:04.143Z,15.15
2023-02-06T15:38:33.779Z,15.02
2023-02-06T15:41:06.247Z,14.95
2023-02-06T15:43:34.860Z,14.84
2023-02-06T15:46:05.293Z,14.78
2023-02-06T15:48:37.914Z,14.70
2023-02-06T15:51:21.108Z,14.63
2023-02-06T15:53:51.301Z,14.51
2023-02-06T15:56:24.676Z,14.48
2023-02-06T15:58:57.281Z,14.50
2023-02-06T16:01:26.240Z,14.47
2023-02-06T16:04:06.068Z,14.45
2023-02-06T16:06:33.134Z,14.38
2023-02-06T16:09:02.629Z,14.41
2023-02-06T16:11:35.036Z,14.42
2023-02-06T16:14:02.376Z,14.38
2023-02-06T16:16:29.422Z,14.34
2023-02-06T16:18:58.844Z,14.36
2023-02-06T16:21:30.276Z,14.37
2023-02-06T16:24:14.722Z,14.31
2023-02-06T16:26:45.124Z,14.26
2023-02-06T16:29:25.295Z,14.21
2023-02-06T16:32:01.254Z,14.14
2023-02-06T16:34:38.520Z,14.09
2023-02-06T16:37:10.030Z,13.99
2023-02-06T16:39:37.218Z,13.90
2023-02-06T16:42:04.626Z,13.82
2023-02-06T16:44:44.032Z,13.79
2023-02-06T16:47:15.628Z,13.72
2023-02-06T16:49:45.607Z,13.63
2023-02-06T16:52:21.392Z,13.62
2023-02-06T16:54:48.867Z,13.51
2023-02-06T16:57:24.441Z,13.46
2023-02-06T16:59:51.804Z,13.37
2023-02-06T17:02:19.015Z,13.31
2023-02-06T17:04:47.890Z,13.25
2023-02-06T17:07:19.232Z,13.19
2023-02-06T17:09:48.362Z,13.12
2023-02-06T17:12:18.458Z,13.10
2023-02-06T17:14:46.336Z,13.04
2023-02-06T17:17:17.814Z,13.03
2023-02-06T17:19:47.574Z,12.95
2023-02-06T17:22:15.258Z,12.91
2023-02-06T17:24:43.272Z,12.86
2023-02-06T17:27:16.218Z,12.84
2023-02-06T17:29:45.017Z,12.77
2023-02-06T17:32:13.309Z,12.72
2023-02-06T17:34:40.692Z,12.70
2023-02-06T17:37:13.087Z,12.64
2023-02-06T17:39:39.894Z,12.54
2023-02-06T17:42:06.738Z,12.46
2023-02-06T17:44:33.863Z,12.42
2023-02-06T17:47:00.676Z,12.37
2023-02-06T17:49:27.901Z,12.32
2023-02-06T17:51:54.942Z,12.30
2023-02-06T17:54:23.314Z,12.25
2023-02-06T17:56:50.201Z,12.22
2023-02-06T17:59:17.414Z,12.18
2023-02-06T18:01:45.167Z,12.16
2023-02-06T18:04:13.477Z,12.11
2023-02-06T18:06:40.353Z,12.11
2023-02-06T18:09:07.592Z,12.06
2023-02-06T18:11:36.033Z,12.05
2023-02-06T18:14:02.978Z,11.99
2023-02-06T18:16:30.369Z,11.95
2023-02-06T18:18:57.506Z,11.91
2023-02-06T18:21:25.064Z,11.86
2023-02-06T18:23:53.119Z,11.85
2023-02-06T18:26:20.564Z,11.78
2023-02-06T18:28:48.867Z,11.72
2023-02-06T18:31:26.223Z,11.72
2023-02-06T18:33:54.486Z,11.68
2023-02-06T18:36:23.752Z,11.67
2023-02-06T18:38:50.868Z,11.63
2023-02-06T18:41:20.031Z,11.63
2023-02-06T18:43:48.486Z,11.61
2023-02-06T18:46:15.584Z,11.57
2023-02-06T18:48:42.637Z,11.53
2023-02-06T18:51:09.464Z,11.50
2023-02-06T18:53:36.374Z,11.47
2023-02-06T18:56:03.408Z,11.43
2023-02-06T18:58:30.517Z,11.44
2023-02-06T19:00:58.764Z,11.38
2023-02-06T19:03:25.787Z,11.34
2023-02-06T19:05:52.969Z,11.35
2023-02-06T19:08:20.263Z,11.30
2023-02-06T19:10:47.409Z,11.31
2023-02-06T19:13:14.339Z,11.27
2023-02-06T19:15:41.445Z,11.26
2023-02-06T19:18:09.794Z,11.23
2023-02-06T19:20:40.773Z,11.23
2023-02-06T19:23:07.612Z,11.17
2023-02-06T19:25:40.994Z,11.20
2023-02-06T19:31:00.435Z,11.12
2023-02-06T19:33:31.639Z,11.13
2023-02-06T19:35:59.517Z,11.10
2023-02-06T19:38:26.584Z,11.09
2023-02-06T19:40:53.757Z,11.07
2023-02-06T19:43:20.841Z,11.04
2023-02-06T19:45:47.893Z,11.00
2023-02-06T19:48:14.901Z,10.97
2023-02-06T19:50:43.132Z,10.97
2023-02-06T19:53:10.419Z,10.92
2023-02-06T19:55:37.619Z,10.86
2023-02-06T19:58:04.633Z,10.88
2023-02-06T20:00:31.621Z,10.80
2023-02-06T20:02:58.773Z,10.75
2023-02-06T20:05:25.579Z,10.72
2023-02-06T20:07:54.003Z,10.72
2023-02-06T20:10:21.073Z,10.72
2023-02-06T20:12:48.216Z,10.69
2023-02-06T20:15:15.334Z,10.66
2023-02-06T20:17:42.593Z,10.65
2023-02-06T20:20:11.620Z,10.66
2023-02-06T20:22:38.534Z,10.61
2023-02-06T20:25:15.161Z,10.62
2023-02-06T20:27:42.368Z,10.51
2023-02-06T20:30:11.067Z,10.51
2023-02-06T20:32:38.227Z,10.48
2023-02-06T20:35:06.293Z,10.49
2023-02-06T20:37:33.234Z,10.51
2023-02-06T20:40:00.754Z,10.51
2023-02-06T20:42:29.027Z,10.51
2023-02-06T20:44:56.404Z,10.45
2023-02-06T20:47:23.886Z,10.44
2023-02-06T20:49:51.112Z,10.41
2023-02-06T20:52:18.013Z,10.39
2023-02-06T20:54:45.065Z,10.37
2023-02-06T20:57:12.126Z,10.32
2023-02-06T20:59:40.317Z,10.31
2023-02-06T21:02:09.689Z,10.32
2023-02-06T21:04:36.823Z,10.31
2023-02-06T21:07:03.751Z,10.32
2023-02-06T21:09:30.835Z,10.31
2023-02-06T21:11:57.956Z,10.31
2023-02-06T21:14:24.931Z,10.28
2023-02-06T21:16:53.425Z,10.30
2023-02-06T21:19:21.089Z,10.22
2023-02-06T21:21:48.922Z,10.24
2023-02-06T21:24:17.199Z,10.18
2023-02-06T21:26:45.198Z,10.17
2023-02-06T21:29:14.330Z,10.12
2023-02-06T21:31:41.873Z,10.10
2023-02-06T21:34:16.471Z,10.14
2023-02-06T21:36:44.818Z,10.12
2023-02-06T21:39:16.869Z,10.17
2023-02-06T21:41:44.928Z,10.12
2023-02-06T21:44:11.786Z,10.15
2023-02-06T21:46:38.682Z,10.17
2023-02-06T21:49:06.226Z,10.18
2023-02-06T21:51:34.679Z,10.21
2023-02-06T21:54:04.792Z,10.21
2023-02-06T21:56:31.937Z,10.21
2023-02-06T21:58:59.228Z,10.22
2023-02-06T22:01:30.240Z,10.24
2023-02-06T22:03:57.768Z,10.21
2023-02-06T22:06:25.390Z,10.22
2023-02-06T22:08:55.725Z,10.17
2023-02-06T22:11:26.350Z,10.15
2023-02-06T22:13:58.268Z,10.12
2023-02-06T22:16:26.485Z,10.11
2023-02-06T22:18:54.384Z,10.11
2023-02-06T22:21:24.238Z,10.07
2023-02-06T22:23:56.164Z,10.04
2023-02-06T22:26:23.350Z,9.98
2023-02-06T22:28:51.199Z,9.94
2023-02-06T22:31:23.422Z,9.95
2023-02-06T22:33:51.111Z,9.90
2023-02-06T22:36:22.252Z,9.89
2023-02-06T22:38:57.362Z,9.93
2023-02-06T22:41:25.930Z,9.89
2023-02-06T22:43:53.241Z,9.86
2023-02-06T22:46:24.496Z,9.87
2023-02-06T22:48:53.220Z,9.87
2023-02-06T22:51:21.589Z,9.87
2023-02-06T22:53:49.446Z,9.89
2023-02-06T22:56:21.001Z,9.93
2023-02-06T22:58:49.182Z,9.94
2023-02-06T23:01:19.347Z,9.91
2023-02-06T23:04:15.166Z,9.90
2023-02-06T23:06:43.339Z,9.93
2023-02-06T23:09:14.936Z,9.95
2023-02-06T23:11:44.511Z,9.97
2023-02-06T23:14:14.420Z,10.00
2023-02-06T23:16:42.480Z,9.97
2023-02-06T23:19:12.721Z,9.98
2023-02-06T23:21:42.027Z,9.87
2023-02-06T23:24:10.536Z,9.74
2023-02-06T23:26:40.522Z,9.70
2023-02-06T23:29:11.800Z,9.70
2023-02-06T23:31:39.006Z,9.71
2023-02-06T23:34:06.068Z,9.70
2023-02-06T23:36:33.055Z,9.73
2023-02-06T23:39:01.181Z,9.70
2023-02-06T23:41:29.659Z,9.70
2023-02-06T23:43:58.921Z,9.67
2023-02-06T23:46:30.789Z,9.70
2023-02-06T23:48:58.181Z,9.70
2023-02-06T23:51:26.263Z,9.70
2023-02-06T23:53:53.552Z,9.67
2023-02-06T23:56:25.020Z,9.67
2023-02-06T23:58:54.165Z,9.63
